Three Rivers, Mississippi
Current Conditions -  °F | °C
As of 2:53 PM on Thursday 27 Nov 2014 (Local Time) from KPQL Reporting Station
Clear Clear  
Wind Chill: 59°   Ceiling: Unl
Heat Index: 59°   Visibility: 10mi
Dew Point: 29°   Wind: 14mph
Humidity: 32%   Direction: 350°N
Pressure: 30.36"   Gusts: NA
Location:  30.3649°N, 88.5432°W
Report Text: KPQL 272053Z AUTO 35012KT 10SM CLR 15/M02 A3036 RMK AO2 SLP281 T01501017 55005 TSNO
Loading
Personal Weather Stations






























Interactive Weather Map New forecast layout! Learn more

10-Day Weather Forecast

Advertisements
Track Severe Weather on mobile